createdAt,value
2018-12-01T00:00:43.363Z,19.70
2018-12-01T00:03:12.835Z,19.27
2018-12-01T00:05:42.266Z,17.50
2018-12-01T00:08:11.839Z,19.23
2018-12-01T00:10:41.621Z,19.40
2018-12-01T00:13:10.925Z,17.33
2018-12-01T00:15:40.417Z,18.97
2018-12-01T00:18:10.153Z,18.40
2018-12-01T00:20:40.017Z,18.20
2018-12-01T00:23:09.442Z,18.73
2018-12-01T00:25:38.894Z,20.40
2018-12-01T00:28:08.331Z,18.97
2018-12-01T00:30:37.813Z,18.33
2018-12-01T00:33:07.381Z,20.70
2018-12-01T00:35:36.647Z,18.47
2018-12-01T00:38:06.698Z,19.40
2018-12-01T00:40:35.973Z,19.23
2018-12-01T00:43:05.386Z,20.30
2018-12-01T00:45:34.637Z,19.00
2018-12-01T00:48:04.241Z,19.60
2018-12-01T00:50:33.523Z,19.57
2018-12-01T00:53:03.334Z,20.30
2018-12-01T00:55:32.750Z,21.30
2018-12-01T00:58:02.040Z,19.07
2018-12-01T01:00:31.631Z,20.87
2018-12-01T01:03:01.417Z,20.17
2018-12-01T01:05:31.650Z,20.70
2018-12-01T01:08:01.859Z,21.13
2018-12-01T01:10:34.719Z,19.60
2018-12-01T01:13:03.767Z,20.27
2018-12-01T01:15:33.069Z,22.03
2018-12-01T01:18:02.372Z,20.40
2018-12-01T01:20:31.871Z,21.50
2018-12-01T01:23:07.640Z,19.87
2018-12-01T01:25:37.074Z,21.50
2018-12-01T01:28:07.457Z,20.40
2018-12-01T01:30:48.874Z,21.33
2018-12-01T01:33:27.713Z,21.77
2018-12-01T01:35:57.015Z,21.60
2018-12-01T01:38:26.496Z,23.23
2018-12-01T01:41:01.667Z,22.42
2018-12-01T01:43:31.021Z,23.47
2018-12-01T01:46:00.822Z,23.43
2018-12-01T01:48:30.413Z,21.87
2018-12-01T01:50:59.717Z,24.60
2018-12-01T01:53:29.012Z,24.13
2018-12-01T01:55:58.353Z,22.17
2018-12-01T01:58:27.654Z,22.87
2018-12-01T02:00:56.913Z,23.60
2018-12-01T02:03:26.229Z,23.00
2018-12-01T02:05:55.528Z,22.90
2018-12-01T02:08:24.896Z,23.70
2018-12-01T02:10:54.841Z,24.50
2018-12-01T02:13:24.133Z,23.30
2018-12-01T02:15:53.450Z,25.30
2018-12-01T02:18:23.468Z,23.13
2018-12-01T02:20:52.779Z,23.22
2018-12-01T02:23:22.064Z,24.18
2018-12-01T02:25:51.506Z,24.60
2018-12-01T02:28:20.843Z,24.47
2018-12-01T02:30:50.133Z,24.67
2018-12-01T02:33:19.525Z,25.30
2018-12-01T02:35:49.171Z,24.40
2018-12-01T02:38:18.460Z,26.00
2018-12-01T02:40:47.855Z,24.90
2018-12-01T02:43:17.094Z,25.50
2018-12-01T02:46:03.377Z,26.20
2018-12-01T02:48:33.034Z,26.70
2018-12-01T02:51:02.387Z,27.43
2018-12-01T02:53:31.773Z,25.87
2018-12-01T02:56:01.069Z,25.65
2018-12-01T02:58:30.373Z,26.57
2018-12-01T03:00:59.749Z,25.30
2018-12-01T03:03:29.077Z,25.17
2018-12-01T03:05:58.381Z,27.33
2018-12-01T03:08:27.673Z,26.67
2018-12-01T03:10:56.993Z,26.87
2018-12-01T03:13:26.464Z,26.30
2018-12-01T03:15:56.248Z,26.83
2018-12-01T03:18:25.518Z,25.43
2018-12-01T03:20:54.856Z,28.77
2018-12-01T03:23:24.147Z,27.87
2018-12-01T03:25:56.632Z,26.55
2018-12-01T03:28:26.045Z,26.73
2018-12-01T03:30:55.297Z,26.17
2018-12-01T03:33:24.560Z,27.37
2018-12-01T03:35:54.168Z,26.73
2018-12-01T03:38:23.815Z,27.87
2018-12-01T03:40:53.283Z,26.73
2018-12-01T03:43:22.580Z,27.62
2018-12-01T03:45:51.888Z,27.77
2018-12-01T03:48:21.216Z,27.30
2018-12-01T03:50:50.518Z,27.48
2018-12-01T03:53:19.798Z,27.35
2018-12-01T03:55:49.080Z,26.05
2018-12-01T03:58:18.497Z,27.62
2018-12-01T04:00:47.750Z,28.13
2018-12-01T04:03:17.019Z,28.47
2018-12-01T04:05:46.420Z,28.70
2018-12-01T04:08:15.679Z,29.02
2018-12-01T04:10:44.941Z,27.60
2018-12-01T04:13:14.229Z,29.03
2018-12-01T04:15:43.700Z,28.43
2018-12-01T04:18:13.130Z,27.60
2018-12-01T04:20:42.549Z,28.17
2018-12-01T04:23:11.935Z,29.25
2018-12-01T04:25:41.200Z,27.23
2018-12-01T04:28:10.507Z,27.20
2018-12-01T04:30:39.749Z,26.00
2018-12-01T04:33:09.007Z,27.20
2018-12-01T04:35:38.285Z,27.83
2018-12-01T04:38:07.967Z,27.70
2018-12-01T04:40:37.601Z,27.27
2018-12-01T04:43:07.174Z,27.83
2018-12-01T04:45:36.438Z,27.17
2018-12-01T04:48:05.915Z,28.30
2018-12-01T04:50:35.212Z,27.60
2018-12-01T04:53:04.464Z,28.20
2018-12-01T04:55:33.910Z,28.27
2018-12-01T04:58:03.213Z,29.07
2018-12-01T05:00:32.530Z,27.57
2018-12-01T05:03:01.847Z,26.97
2018-12-01T05:05:31.262Z,28.00
2018-12-01T05:08:00.549Z,28.53
2018-12-01T05:10:29.879Z,30.50
2018-12-01T05:12:59.139Z,29.13
2018-12-01T05:15:28.492Z,29.33
2018-12-01T05:17:57.766Z,30.97
2018-12-01T05:20:27.185Z,29.47
2018-12-01T05:22:56.473Z,28.10
2018-12-01T05:25:25.776Z,27.20
2018-12-01T05:27:55.268Z,30.57
2018-12-01T05:30:24.595Z,27.80
2018-12-01T05:32:53.846Z,27.20
2018-12-01T05:35:24.776Z,27.50
2018-12-01T05:37:54.029Z,25.80
2018-12-01T05:40:23.373Z,27.30
2018-12-01T05:42:52.724Z,24.97
2018-12-01T05:45:23.447Z,26.07
2018-12-01T05:47:53.610Z,27.87
2018-12-01T05:50:26.737Z,26.27
2018-12-01T05:52:57.495Z,28.37
2018-12-01T05:55:26.912Z,26.83
2018-12-01T05:57:56.181Z,28.10
2018-12-01T06:00:25.539Z,28.60
2018-12-01T06:02:54.850Z,27.43
2018-12-01T06:05:24.095Z,26.97
2018-12-01T06:07:53.880Z,27.70
2018-12-01T06:10:23.705Z,27.87
2018-12-01T06:12:54.113Z,28.90
2018-12-01T06:15:23.504Z,27.27
2018-12-01T06:17:52.769Z,27.90
2018-12-01T06:20:23.410Z,27.60
2018-12-01T06:22:52.782Z,28.17
2018-12-01T06:25:23.686Z,28.30
2018-12-01T06:27:53.398Z,29.00
2018-12-01T06:30:22.730Z,29.17
2018-12-01T06:32:52.937Z,26.23
2018-12-01T06:35:22.232Z,27.97
2018-12-01T06:37:51.498Z,28.07
2018-12-01T06:40:21.866Z,28.40
2018-12-01T06:42:51.688Z,28.47
2018-12-01T06:45:21.136Z,27.43
2018-12-01T06:47:50.430Z,28.30
2018-12-01T06:50:21.877Z,27.87
2018-12-01T06:52:53.347Z,27.67
2018-12-01T06:55:23.840Z,28.27
2018-12-01T06:57:53.154Z,28.33
2018-12-01T07:00:24.215Z,27.60
2018-12-01T07:02:55.225Z,29.70
2018-12-01T07:05:24.576Z,27.47
2018-12-01T07:07:53.957Z,27.43
2018-12-01T07:10:23.940Z,28.67
2018-12-01T07:13:01.823Z,28.33
2018-12-01T07:15:36.738Z,27.00
2018-12-01T07:18:23.059Z,29.50
2018-12-01T07:20:52.322Z,27.70
2018-12-01T07:23:21.583Z,29.80
2018-12-01T07:25:51.189Z,30.50
2018-12-01T07:28:21.463Z,28.10
2018-12-01T07:30:49.789Z,29.00
2018-12-01T07:33:19.042Z,29.53
2018-12-01T07:35:48.319Z,31.63
2018-12-01T07:38:17.595Z,29.67
2018-12-01T07:40:46.896Z,28.60
2018-12-01T07:43:16.157Z,30.73
2018-12-01T07:45:45.487Z,30.37
2018-12-01T07:48:14.994Z,28.53
2018-12-01T07:50:44.227Z,30.33
2018-12-01T07:53:17.438Z,33.00
2018-12-01T07:55:42.852Z,34.37
2018-12-01T07:58:12.140Z,31.53
2018-12-01T08:00:41.486Z,31.83
2018-12-01T08:03:10.774Z,30.47
2018-12-01T08:05:40.201Z,33.30
2018-12-01T08:08:09.518Z,30.97
2018-12-01T08:10:39.232Z,28.73
2018-12-01T08:13:08.517Z,28.60
2018-12-01T08:15:37.843Z,30.23
2018-12-01T08:18:07.125Z,28.73
2018-12-01T08:20:36.438Z,29.30
2018-12-01T08:23:06.136Z,26.57
2018-12-01T08:25:35.437Z,26.53
2018-12-01T08:28:05.262Z,24.80
2018-12-01T08:30:34.801Z,26.50
2018-12-01T08:33:04.580Z,23.10
2018-12-01T08:35:33.873Z,21.70
2018-12-01T08:38:03.173Z,22.90
2018-12-01T08:40:33.735Z,22.83
2018-12-01T08:43:03.081Z,22.10
2018-12-01T08:45:32.402Z,20.07
2018-12-01T08:48:01.708Z,20.93
2018-12-01T08:50:31.050Z,18.90
2018-12-01T08:53:00.314Z,19.23
2018-12-01T08:55:30.162Z,18.03
2018-12-01T08:57:59.457Z,19.60
2018-12-01T09:00:39.414Z,17.60
2018-12-01T09:03:20.756Z,19.20
2018-12-01T09:05:50.093Z,19.60
2018-12-01T09:08:19.345Z,19.50
2018-12-01T09:10:48.639Z,16.97
2018-12-01T09:13:18.265Z,19.40
2018-12-01T09:15:47.572Z,18.80
2018-12-01T09:18:16.855Z,19.13
2018-12-01T09:20:46.162Z,17.93
2018-12-01T09:23:15.437Z,19.33
2018-12-01T09:25:44.742Z,18.43
2018-12-01T09:28:14.026Z,19.83
2018-12-01T09:30:43.620Z,20.47
2018-12-01T09:33:12.913Z,18.10
2018-12-01T09:35:42.689Z,19.50
2018-12-01T09:38:11.996Z,20.80
2018-12-01T09:40:41.493Z,19.70
2018-12-01T09:43:10.926Z,19.70
2018-12-01T09:45:40.207Z,17.23
2018-12-01T09:48:09.662Z,18.97
2018-12-01T09:50:38.970Z,22.13
2018-12-01T09:53:08.586Z,16.70
2018-12-01T09:55:37.966Z,21.10
2018-12-01T09:58:07.678Z,17.03
2018-12-01T10:00:36.973Z,16.83
2018-12-01T10:03:08.219Z,16.00
2018-12-01T10:05:37.563Z,15.90
2018-12-01T10:08:07.755Z,16.50
2018-12-01T10:10:37.132Z,14.03
2018-12-01T10:13:06.500Z,15.30
2018-12-01T10:15:37.389Z,15.93
2018-12-01T10:18:09.416Z,16.80
2018-12-01T10:20:38.900Z,17.77
2018-12-01T10:23:11.901Z,14.70
2018-12-01T10:25:43.489Z,12.50
2018-12-01T10:28:13.058Z,13.47
2018-12-01T10:30:42.394Z,13.60
2018-12-01T10:33:11.756Z,14.10
2018-12-01T10:35:41.244Z,13.73
2018-12-01T10:38:14.031Z,12.57
2018-12-01T10:40:43.361Z,13.13
2018-12-01T10:43:12.664Z,14.50
2018-12-01T10:45:42.017Z,13.40
2018-12-01T10:48:11.432Z,13.20
2018-12-01T10:50:40.885Z,13.37
2018-12-01T10:53:10.193Z,13.93
2018-12-01T10:55:40.000Z,14.20
2018-12-01T10:58:11.362Z,16.10
2018-12-01T11:00:46.557Z,15.43
2018-12-01T11:03:21.361Z,13.80
2018-12-01T11:05:50.849Z,13.70
2018-12-01T11:08:20.194Z,14.57
2018-12-01T11:10:55.081Z,15.23
2018-12-01T11:13:19.412Z,16.87
2018-12-01T11:15:48.718Z,14.47
2018-12-01T11:18:18.044Z,15.03
2018-12-01T11:20:47.364Z,15.20
2018-12-01T11:23:16.646Z,13.50
2018-12-01T11:25:46.995Z,14.77
2018-12-01T11:28:16.326Z,14.00
2018-12-01T11:30:45.632Z,13.13
2018-12-01T11:33:14.967Z,12.83
2018-12-01T11:35:44.401Z,10.80
2018-12-01T11:38:13.724Z,13.47
2018-12-01T11:40:42.983Z,11.10
2018-12-01T11:43:12.331Z,12.50
2018-12-01T11:45:41.668Z,12.20
2018-12-01T11:48:11.087Z,13.50
2018-12-01T11:50:41.488Z,11.87
2018-12-01T11:53:10.808Z,12.83
2018-12-01T11:55:40.106Z,10.87
2018-12-01T11:58:09.517Z,11.50
2018-12-01T12:00:38.838Z,13.93
2018-12-01T12:03:08.161Z,11.80
2018-12-01T12:05:37.573Z,14.30
2018-12-01T12:08:19.378Z,12.60
2018-12-01T12:10:48.799Z,9.17
2018-12-01T12:13:18.198Z,10.50
2018-12-01T12:15:47.484Z,10.37
2018-12-01T12:18:16.976Z,10.80
2018-12-01T12:20:46.382Z,11.70
2018-12-01T12:23:16.815Z,11.17
2018-12-01T12:25:45.081Z,11.03
2018-12-01T12:28:14.466Z,10.97
2018-12-01T12:30:43.939Z,8.60
2018-12-01T12:33:13.314Z,10.37
2018-12-01T12:35:42.622Z,10.80
2018-12-01T12:38:11.933Z,10.23
2018-12-01T12:40:41.385Z,9.73
2018-12-01T12:43:10.724Z,10.17
2018-12-01T12:45:40.105Z,8.20
2018-12-01T12:48:10.356Z,10.60
2018-12-01T12:50:39.669Z,11.00
2018-12-01T12:53:08.945Z,10.60
2018-12-01T12:55:38.290Z,9.13
2018-12-01T12:58:07.759Z,10.10
2018-12-01T13:00:37.174Z,9.67
2018-12-01T13:03:12.581Z,12.43
2018-12-01T13:05:45.573Z,9.87
2018-12-01T13:08:17.788Z,10.27
2018-12-01T13:10:47.607Z,9.53
2018-12-01T13:13:16.902Z,10.83
2018-12-01T13:15:46.249Z,9.60
2018-12-01T13:18:15.932Z,10.43
2018-12-01T13:20:47.360Z,9.40
2018-12-01T13:23:16.686Z,8.23
2018-12-01T13:25:46.082Z,9.23
2018-12-01T13:28:19.335Z,9.00
2018-12-01T13:30:55.781Z,9.03
2018-12-01T13:33:25.596Z,9.17
2018-12-01T13:35:55.129Z,9.40
2018-12-01T13:38:24.661Z,10.60
2018-12-01T13:40:54.197Z,9.70
2018-12-01T13:43:23.507Z,8.47
2018-12-01T13:45:52.835Z,8.03
2018-12-01T13:48:22.205Z,10.67
2018-12-01T13:50:51.522Z,9.17
2018-12-01T13:53:20.832Z,9.33
2018-12-01T13:55:50.195Z,10.60
2018-12-01T13:58:19.524Z,8.10
2018-12-01T14:00:48.824Z,8.63
2018-12-01T14:03:18.365Z,8.47
2018-12-01T14:05:47.716Z,8.63
2018-12-01T14:08:17.044Z,7.27
2018-12-01T14:10:49.509Z,9.83
2018-12-01T14:13:18.828Z,10.07
2018-12-01T14:15:48.214Z,8.67
2018-12-01T14:18:17.542Z,7.47
2018-12-01T14:20:46.836Z,8.00
2018-12-01T14:23:16.112Z,7.53
2018-12-01T14:25:45.623Z,7.93
2018-12-01T14:28:14.904Z,7.33
2018-12-01T14:30:44.221Z,8.00
2018-12-01T14:33:14.145Z,7.07
2018-12-01T14:35:43.444Z,8.00
2018-12-01T14:38:16.757Z,9.63
2018-12-01T14:40:48.908Z,10.17
2018-12-01T14:43:18.711Z,11.50
2018-12-01T14:45:50.562Z,13.70
2018-12-01T14:48:19.941Z,11.10
2018-12-01T14:50:49.251Z,10.30
2018-12-01T14:53:19.437Z,11.63
2018-12-01T14:55:48.754Z,10.73
2018-12-01T14:58:18.111Z,10.60
2018-12-01T15:00:54.327Z,10.20
2018-12-01T15:03:23.841Z,11.00
2018-12-01T15:05:53.141Z,9.63
2018-12-01T15:08:22.465Z,12.00
2018-12-01T15:10:51.933Z,9.30
2018-12-01T15:13:21.263Z,9.93
2018-12-01T15:15:50.583Z,10.10
2018-12-01T15:18:19.853Z,8.33
2018-12-01T15:20:49.127Z,8.10
2018-12-01T15:23:18.812Z,8.60
2018-12-01T15:25:48.100Z,8.80
2018-12-01T15:28:17.358Z,9.00
2018-12-01T15:30:46.759Z,9.57
2018-12-01T15:33:17.137Z,8.50
2018-12-01T15:35:47.972Z,9.80
2018-12-01T15:38:17.370Z,9.90
2018-12-01T15:40:49.924Z,9.20
2018-12-01T15:43:19.374Z,7.43
2018-12-01T15:45:48.684Z,8.40
2018-12-01T15:48:18.018Z,8.87
2018-12-01T15:50:47.318Z,8.83
2018-12-01T15:53:17.076Z,8.87
2018-12-01T15:55:46.375Z,9.60
2018-12-01T15:58:15.749Z,9.40
2018-12-01T16:00:45.323Z,8.17
2018-12-01T16:03:14.954Z,7.70
2018-12-01T16:05:44.238Z,9.03
2018-12-01T16:08:13.547Z,9.47
2018-12-01T16:10:43.135Z,8.60
2018-12-01T16:13:20.202Z,9.10
2018-12-01T16:15:57.175Z,10.40
2018-12-01T16:18:26.443Z,9.60
2018-12-01T16:20:55.791Z,7.93
2018-12-01T16:23:25.503Z,8.77
2018-12-01T16:25:55.138Z,9.37
2018-12-01T16:28:24.410Z,8.57
2018-12-01T16:30:53.768Z,9.77
2018-12-01T16:33:23.337Z,8.70
2018-12-01T16:35:52.957Z,9.20
2018-12-01T16:38:24.926Z,8.30
2018-12-01T16:41:00.762Z,8.00
2018-12-01T16:43:33.309Z,7.73
2018-12-01T16:46:02.747Z,8.97
2018-12-01T16:48:33.153Z,10.37
2018-12-01T16:51:01.437Z,10.80
2018-12-01T16:53:30.852Z,10.40
2018-12-01T16:56:00.233Z,10.80
2018-12-01T16:58:29.551Z,10.77
2018-12-01T17:00:58.975Z,8.20
2018-12-01T17:03:28.264Z,8.00
2018-12-01T17:06:00.124Z,11.37
2018-12-01T17:08:29.409Z,13.97
2018-12-01T17:10:58.728Z,13.03
2018-12-01T17:13:28.034Z,9.47
2018-12-01T17:15:57.370Z,12.23
2018-12-01T17:18:26.654Z,9.80
2018-12-01T17:20:56.003Z,9.70
2018-12-01T17:23:25.415Z,8.60
2018-12-01T17:25:54.735Z,9.33
2018-12-01T17:28:24.590Z,10.67
2018-12-01T17:30:54.042Z,8.53
2018-12-01T17:33:23.307Z,7.73
2018-12-01T17:35:52.655Z,7.97
2018-12-01T17:38:22.878Z,8.33
2018-12-01T17:41:28.174Z,8.83
2018-12-01T17:44:08.339Z,9.13
2018-12-01T17:46:38.264Z,7.70
2018-12-01T17:49:08.048Z,7.80
2018-12-01T17:51:37.354Z,8.43
2018-12-01T17:54:12.962Z,9.23
2018-12-01T17:56:42.217Z,7.47
2018-12-01T17:59:11.478Z,7.80
2018-12-01T18:01:41.426Z,8.60
2018-12-01T18:04:10.702Z,7.90
2018-12-01T18:06:39.991Z,7.80
2018-12-01T18:09:10.413Z,7.83
2018-12-01T18:11:39.928Z,7.50
2018-12-01T18:14:11.082Z,8.27
2018-12-01T18:16:40.830Z,7.70
2018-12-01T18:19:11.119Z,6.90
2018-12-01T18:21:39.781Z,7.37
2018-12-01T18:24:09.644Z,7.03
2018-12-01T18:26:38.946Z,7.40
2018-12-01T18:29:08.279Z,8.43
2018-12-01T18:31:37.647Z,5.90
2018-12-01T18:34:11.077Z,7.23
2018-12-01T18:36:40.571Z,6.47
2018-12-01T18:39:17.621Z,7.03
2018-12-01T18:41:47.462Z,5.27
2018-12-01T18:44:16.768Z,6.77
2018-12-01T18:46:46.104Z,6.50
2018-12-01T18:49:15.441Z,6.33
2018-12-01T18:51:44.741Z,6.00
2018-12-01T18:54:14.351Z,6.40
2018-12-01T18:56:43.685Z,7.70
2018-12-01T18:59:12.973Z,6.43
2018-12-01T19:01:42.348Z,6.40
2018-12-01T19:04:12.248Z,7.60
2018-12-01T19:06:41.538Z,6.73
2018-12-01T19:09:10.949Z,6.57
2018-12-01T19:11:40.266Z,6.00
2018-12-01T19:14:09.522Z,7.00
2018-12-01T19:16:38.883Z,7.63
2018-12-01T19:19:08.578Z,7.13
2018-12-01T19:21:37.959Z,6.67
2018-12-01T19:24:07.271Z,7.80
2018-12-01T19:26:37.047Z,6.33
2018-12-01T19:29:06.876Z,6.70
2018-12-01T19:31:36.216Z,7.97
2018-12-01T19:34:06.100Z,6.73
2018-12-01T19:36:35.500Z,7.03
2018-12-01T19:39:12.218Z,8.80
2018-12-01T19:41:41.506Z,8.80
2018-12-01T19:44:10.895Z,8.67
2018-12-01T19:46:40.972Z,8.80
2018-12-01T19:49:10.098Z,8.07
2018-12-01T19:51:39.399Z,9.67
2018-12-01T19:54:08.740Z,8.67
2018-12-01T19:56:38.024Z,9.67
2018-12-01T19:59:07.313Z,7.97
2018-12-01T20:01:36.631Z,8.40
2018-12-01T20:04:06.267Z,8.50
2018-12-01T20:06:35.542Z,8.70
2018-12-01T20:09:05.838Z,9.30
2018-12-01T20:11:35.250Z,8.23
2018-12-01T20:14:08.426Z,6.97
2018-12-01T20:16:41.295Z,6.60
2018-12-01T20:19:10.935Z,7.17
2018-12-01T20:21:40.201Z,6.87
2018-12-01T20:24:09.870Z,7.40
2018-12-01T20:26:41.903Z,7.80
2018-12-01T20:29:11.233Z,7.30
2018-12-01T20:31:40.505Z,7.20
2018-12-01T20:34:10.061Z,6.60
2018-12-01T20:36:47.875Z,6.57
2018-12-01T20:39:23.368Z,6.30
2018-12-01T20:41:52.673Z,6.27
2018-12-01T20:44:22.337Z,6.90
2018-12-01T20:46:51.921Z,7.40
2018-12-01T20:49:21.356Z,6.27
2018-12-01T20:51:50.730Z,7.20
2018-12-01T20:54:31.613Z,6.63
2018-12-01T20:57:33.868Z,7.07
2018-12-01T21:00:03.938Z,6.70
2018-12-01T21:02:33.363Z,6.47
2018-12-01T21:05:02.728Z,6.50
2018-12-01T21:07:32.347Z,6.97
2018-12-01T21:10:01.754Z,6.70
2018-12-01T21:12:31.145Z,7.63
2018-12-01T21:15:00.661Z,7.67
2018-12-01T21:17:29.981Z,7.57
2018-12-01T21:20:00.193Z,7.27
2018-12-01T21:22:29.670Z,6.80
2018-12-01T21:24:59.053Z,7.27
2018-12-01T21:27:28.525Z,7.50
2018-12-01T21:29:58.083Z,6.87
2018-12-01T21:32:27.571Z,7.43
2018-12-01T21:34:56.976Z,7.90
2018-12-01T21:37:26.440Z,7.20
2018-12-01T21:39:55.905Z,7.70
2018-12-01T21:42:25.565Z,7.50
2018-12-01T21:44:55.203Z,7.73
2018-12-01T21:47:24.596Z,7.40
2018-12-01T21:49:53.999Z,7.50
2018-12-01T21:52:23.825Z,7.67
2018-12-01T21:54:53.236Z,6.90
2018-12-01T21:57:22.653Z,7.30
2018-12-01T21:59:52.072Z,8.33
2018-12-01T22:02:21.498Z,7.67
2018-12-01T22:04:50.947Z,7.10
2018-12-01T22:07:20.305Z,6.70
2018-12-01T22:09:49.661Z,6.73
2018-12-01T22:12:19.124Z,6.53
2018-12-01T22:14:48.549Z,7.33
2018-12-01T22:17:18.161Z,5.90
2018-12-01T22:19:47.496Z,6.73
2018-12-01T22:22:17.019Z,7.43
2018-12-01T22:24:46.326Z,6.93
2018-12-01T22:27:15.693Z,6.90
2018-12-01T22:29:45.088Z,6.93
2018-12-01T22:32:14.439Z,6.87
2018-12-01T22:34:43.751Z,8.10
2018-12-01T22:37:13.340Z,6.90
2018-12-01T22:39:42.919Z,6.63
2018-12-01T22:42:12.290Z,6.77
2018-12-01T22:44:41.599Z,7.77
2018-12-01T22:47:10.855Z,7.10
2018-12-01T22:49:40.199Z,6.57
2018-12-01T22:52:09.616Z,6.80
2018-12-01T22:54:39.078Z,7.40
2018-12-01T22:57:08.431Z,7.37
2018-12-01T22:59:38.243Z,7.20
2018-12-01T23:02:07.620Z,7.60
2018-12-01T23:04:38.856Z,7.20
2018-12-01T23:07:08.157Z,7.67
2018-12-01T23:09:37.422Z,8.13
2018-12-01T23:12:06.924Z,7.50
2018-12-01T23:14:36.213Z,8.33
2018-12-01T23:17:05.890Z,7.77
2018-12-01T23:19:35.543Z,7.67
2018-12-01T23:22:04.974Z,7.83
2018-12-01T23:24:34.407Z,8.57
2018-12-01T23:27:03.768Z,8.30
2018-12-01T23:29:33.152Z,9.00
2018-12-01T23:32:02.440Z,8.70
2018-12-01T23:34:31.830Z,7.93
2018-12-01T23:37:01.122Z,9.07
2018-12-01T23:39:30.604Z,9.37
2018-12-01T23:41:59.989Z,8.80
2018-12-01T23:44:30.402Z,9.10
2018-12-01T23:46:59.660Z,8.33
2018-12-01T23:49:28.970Z,9.67
2018-12-01T23:51:58.260Z,8.57
2018-12-01T23:54:27.514Z,10.17
2018-12-01T23:56:56.796Z,8.93
2018-12-01T23:59:26.069Z,8.57
